Flight Track Log - Related Links

Times and Time Zones

All times are in EDT time to prevent confusion due to time zone crossing. See the SWA218 flight status page for this flight to view local times or setup timezone preferences in your user account.

Time Position Orientation Groundspeed Altitude Reporting Facility
EDT Latitude Longitude Course Direction KTS MPH feet Rate Location/Type
Thu 07:52:35 PM 36.0758 -115.1072 90° East 152 175 3,500  Level Los Angeles Center
Thu 07:53:48 PM 36.0761 -115.0192 90° East 215 247 5,600 1,641 Climbing Los Angeles Center
Thu 07:54:43 PM 36.0794 -114.9356 87° East 264 304 7,000 1,846 Climbing Los Angeles Center
Thu 07:55:19 PM 36.0889 -114.8747 79° East 275 316 8,400 2,449 Climbing Los Angeles Center
Thu 07:56:21 PM 36.1056 -114.7714 79° East 304 350 11,000 2,226 Climbing Los Angeles Center
Thu 07:57:23 PM 36.1272 -114.6431 78° East 381 438 13,000 2,323 Climbing Los Angeles Center
Thu 07:58:25 PM 36.1497 -114.5064 78° East 403 464 15,800 2,710 Climbing Los Angeles Center
Thu 07:59:27 PM 36.1722 -114.3644 79° East 418 481 18,600 2,661 Climbing Los Angeles Center
Thu 08:00:29 PM 36.1964 -114.2197 78° East 428 493 21,300 2,710 Climbing Los Angeles Center
Thu 08:01:31 PM 36.2228 -114.0428 79° East 434 499 24,200 2,468 Climbing Los Angeles Center
Thu 08:02:33 PM 36.2744 -113.9011 66° East 446 513 26,400 2,081 Climbing Los Angeles Center
Thu 08:03:35 PM 36.3222 -113.7575 68° East 450 518 28,500 1,887 Climbing Los Angeles Center
Thu 08:04:37 PM 36.3717 -113.6128 67° East 454 522 30,300 1,680 Climbing Los Angeles Center
Thu 08:05:40 PM 36.4197 -113.4661 68° East 460 529 32,000 1,632 Climbing Los Angeles Center
Thu 08:06:42 PM 36.4689 -113.3203 67° East 459 528 33,700 1,500 Climbing Los Angeles Center
Thu 08:07:44 PM 36.5269 -113.1419 68° East 459 528 35,100 1,452 Climbing Los Angeles Center
Thu 08:08:46 PM 36.5761 -112.9944 67° East 463 533 36,700 1,500 Climbing Los Angeles Center
Thu 08:09:48 PM 36.6228 -112.8478 68° East 460 529 38,200 1,113 Climbing Los Angeles Center
Thu 08:10:50 PM 36.6700 -112.7025 68° East 457 526 39,000 387 Climbing Los Angeles Center
Thu 08:11:52 PM 36.7169 -112.5558 68° East 457 526 39,000  Level Los Angeles Center
Thu 08:12:54 PM 36.7644 -112.4092 68° East 458 527 39,000  Level Los Angeles Center
Thu 08:13:56 PM 36.8200 -112.2314 69° East 460 529 39,000  Level Los Angeles Center
Thu 08:14:59 PM 36.8683 -112.0822 68° East 464 534 39,000  Level Los Angeles Center
Thu 08:16:01 PM 36.9150 -111.9319 69° East 466 536 39,000  Level Los Angeles Center
Thu 08:17:03 PM 36.9617 -111.7831 69° East 464 534 39,000  Level Los Angeles Center
Thu 08:18:05 PM 37.0083 -111.6364 68° East 457 526 39,000  Level Los Angeles Center
Thu 08:19:07 PM 37.0628 -111.4575 69° East 460 529 39,000  Level Los Angeles Center
Thu 08:20:09 PM 37.1092 -111.3078 69° East 461 531 39,000  Level Los Angeles Center
Thu 08:21:11 PM 37.1536 -111.1583 69° East 460 529 39,000  Level Los Angeles Center
Thu 08:22:41 PM 37.2261 -110.9217 69° East 456 525 39,000  Level Denver Center
Thu 08:23:43 PM 37.2711 -110.7725 69° East 460 529 39,000  Level Denver Center
Thu 08:24:45 PM 37.3156 -110.6244 69° East 455 524 39,000  Level Denver Center
Thu 08:25:47 PM 37.3611 -110.4778 69° East 452 520 39,000  Level Denver Center
Thu 08:26:49 PM 37.4039 -110.3300 70° East 451 519 39,000  Level Denver Center
Thu 08:27:51 PM 37.4536 -110.1664 69° East 452 520 39,000  Level Denver Center
Thu 08:28:54 PM 37.4939 -110.0236 70° East 452 520 39,000  Level Denver Center
Thu 08:29:56 PM 37.5553 -109.8622 64° Northeast 454 522 39,000  Level Denver Center
Thu 08:30:58 PM 37.6061 -109.7242 65° Northeast 453 521 39,000  Level Denver Center
Thu 08:32:00 PM 37.6647 -109.5647 65° Northeast 448 516 39,000  Level Denver Center
Thu 08:33:02 PM 37.7133 -109.4267 66° East 448 516 39,000  Level Denver Center
Thu 08:34:04 PM 37.7628 -109.2608 69° East 451 519 39,000  Level Denver Center
Thu 08:35:06 PM 37.8044 -109.1192 70° East 449 517 39,000  Level Denver Center
Thu 08:36:08 PM 37.8561 -108.9533 68° East 452 520 39,000  Level Denver Center
Thu 08:37:10 PM 37.8986 -108.8100 69° East 454 522 39,000  Level Denver Center
Thu 08:38:12 PM 37.9411 -108.6678 69° East 451 519 39,000  Level Denver Center
Thu 08:39:14 PM 37.9917 -108.4978 69° East 458 527 39,000  Level Denver Center
Thu 08:40:16 PM 38.0336 -108.3556 69° East 454 522 39,000  Level Denver Center
Thu 08:41:18 PM 38.0844 -108.1794 70° East 457 526 39,000  Level Denver Center
Thu 08:42:20 PM 38.1256 -108.0353 70° East 455 524 39,000  Level Denver Center
Thu 08:43:22 PM 38.1625 -107.8628 75° East 454 522 39,000  Level Denver Center
Thu 08:44:24 PM 38.1761 -107.7133 83° East 448 516 39,000  Level Denver Center
Thu 08:45:26 PM 38.1903 -107.5608 83° East 452 520 39,000  Level Denver Center
Thu 08:46:27 PM 38.2064 -107.3811 83° East 458 527 39,000  Level Denver Center
Thu 08:47:29 PM 38.2208 -107.2278 83° East 458 527 39,000  Level Denver Center
Thu 08:48:31 PM 38.2356 -107.0542 84° East 450 518 39,000  Level Denver Center
Thu 08:49:33 PM 38.2497 -106.8922 84° East 461 531 39,000  Level Denver Center
Thu 08:50:35 PM 38.2644 -106.7183 84° East 454 522 39,000  Level Denver Center
Thu 08:51:37 PM 38.2753 -106.5639 85° East 458 527 39,000  Level Denver Center
Thu 08:52:39 PM 38.2689 -106.4103 93° East 459 528 39,000  Level Denver Center
Thu 08:53:41 PM 38.2658 -106.2178 91° East 457 526 39,000  Level Denver Center
Thu 08:54:43 PM 38.2611 -106.0572 92° East 455 524 39,000  Level Denver Center
Thu 08:55:45 PM 38.2569 -105.9033 92° East 455 524 39,000  Level Denver Center
Thu 08:56:47 PM 38.2511 -105.7242 92° East 454 522 39,000  Level Denver Center
Thu 08:57:49 PM 38.2456 -105.5711 93° East 454 522 39,000  Level Denver Center
Thu 08:58:50 PM 38.2397 -105.3931 92° East 452 520 39,000  Level Denver Center
Thu 08:59:52 PM 38.2469 -105.2406 87° East 448 516 39,000  Level Denver Center
Thu 09:00:54 PM 38.2614 -105.0625 84° East 451 519 39,000  Level Denver Center
Thu 09:01:56 PM 38.2736 -104.9094 84° East 453 521 39,000  Level Denver Center
Thu 09:02:58 PM 38.2858 -104.7561 84° East 454 522 39,000  Level Denver Center
Thu 09:04:00 PM 38.2989 -104.5769 85° East 454 522 39,000  Level Denver Center
Thu 09:05:02 PM 38.3100 -104.4233 85° East 454 522 39,000  Level Denver Center
Thu 09:06:04 PM 38.3236 -104.2419 84° East 457 526 39,000  Level Denver Center
Thu 09:07:06 PM 38.3344 -104.0892 85° East 453 521 39,000  Level Denver Center
Thu 09:08:08 PM 38.3467 -103.9097 85° East 453 521 39,000  Level Denver Center
Thu 09:09:10 PM 38.3569 -103.7544 85° East 456 525 39,000  Level Denver Center
Thu 09:10:12 PM 38.3672 -103.6006 85° East 453 521 39,000  Level Denver Center
Thu 09:11:14 PM 38.3792 -103.4103 85° East 457 526 39,000  Level Denver Center
Thu 09:12:15 PM 38.3892 -103.2547 85° East 458 527 39,000  Level Denver Center
Thu 09:13:17 PM 38.3981 -103.1000 86° East 458 527 39,000  Level Denver Center
Thu 09:14:19 PM 38.4089 -102.9197 86° East 458 527 39,000  Level Denver Center
Thu 09:15:21 PM 38.4183 -102.7653 85° East 456 525 39,000  Level Denver Center
Thu 09:16:23 PM 38.4281 -102.5867 86° East 453 521 39,000  Level Denver Center
Thu 09:17:25 PM 38.4361 -102.4328 86° East 453 521 39,000  Level Denver Center
Thu 09:18:27 PM 38.4469 -102.2542 86° East 453 521 39,000  Level Denver Center
Thu 09:19:29 PM 38.4542 -102.1008 87° East 452 520 39,000  Level Denver Center
Thu 09:20:31 PM 38.4647 -101.9211 86° East 453 521 39,000  Level Denver Center
Thu 09:21:32 PM 38.4719 -101.7689 86° East 451 519 39,000  Level Denver Center
Thu 09:22:34 PM 38.4797 -101.6158 86° East 451 519 39,000  Level Denver Center
Thu 09:23:36 PM 38.4883 -101.4394 86° East 447 514 39,000  Level Denver Center
Thu 09:24:38 PM 38.4950 -101.2853 87° East 451 519 39,000  Level Denver Center
Thu 09:25:40 PM 38.5028 -101.1086 87° East 446 513 39,000  Level Denver Center
Thu 09:26:42 PM 38.5097 -100.9578 87° East 444 511 39,000  Level Denver Center
Thu 09:27:44 PM 38.5178 -100.7822 87° East 442 509 39,000  Level Denver Center
Thu 09:28:46 PM 38.5231 -100.6294 87° East 448 516 39,000  Level Denver Center
Thu 09:29:32 PM 38.5281 -100.5017 87° East 445 512 39,000  Level Kansas City Center
Thu 09:31:51 PM 38.5417 -100.1478 87° East 446 513 39,000  Level Denver Center
Thu 09:32:53 PM 38.5475 -99.9725 88° East 442 509 39,000  Level Denver Center
Thu 09:33:55 PM 38.5525 -99.8219 88° East 442 509 39,000  Level Denver Center
Thu 09:34:57 PM 38.5581 -99.6467 88° East 443 510 39,000  Level Denver Center
Thu 09:35:59 PM 38.5625 -99.4972 88° East 440 506 39,000  Level Denver Center
Thu 09:37:00 PM 38.5739 -99.3393 85° East  Level FlightAware Approximate
Thu 09:41:15 PM 38.5861 -98.6747 86° East 441 507 39,000  Level Kansas City Center
Thu 09:42:16 PM 38.5889 -98.5172 89° East 442 509 39,000  Level Kansas City Center
Thu 09:43:17 PM 38.5925 -98.3592 88° East 443 510 39,000  Level Kansas City Center
Thu 09:44:00 PM 38.6465 -98.2507 85° East  Level FlightAware Approximate
Thu 09:44:19 PM 38.5958 -98.2011 88° East 444 511 39,000  Level Kansas City Center
Thu 09:45:00 PM 38.6560 -98.0950 85° East  Level FlightAware Approximate
Thu 09:45:20 PM 38.5994 -98.0411 88° East 447 514 39,000  Level Kansas City Center
Thu 09:46:00 PM 38.6653 -97.9393 86° East  Level FlightAware Approximate
Thu 09:46:22 PM 38.6019 -97.8819 89° East 445 512 39,000  Level Kansas City Center
Thu 09:47:23 PM 38.6042 -97.7208 89° East 449 517 39,000  Level Kansas City Center
Thu 09:48:25 PM 38.6069 -97.5303 89° East 446 513 39,000  Level Kansas City Center
Thu 09:49:26 PM 38.6089 -97.3703 89° East 448 516 39,000  Level Kansas City Center
Thu 09:50:28 PM 38.6100 -97.2108 89° East 448 516 39,000  Level Kansas City Center
Thu 09:51:29 PM 38.6119 -97.0511 89° East 448 516 39,000  Level Kansas City Center
Thu 09:52:31 PM 38.6122 -96.8919 90° East 447 514 39,000  Level Kansas City Center
Thu 09:53:32 PM 38.6128 -96.7247 90° East 447 514 39,000  Level Kansas City Center
Thu 09:54:34 PM 38.6139 -96.5728 89° East 447 514 39,000  Level Kansas City Center
Thu 09:55:35 PM 38.6150 -96.3961 89° East 447 514 39,000  Level Kansas City Center
Thu 09:56:37 PM 38.6156 -96.2428 90° East 450 518 39,000  Level Kansas City Center
Thu 09:57:38 PM 38.6156 -96.0619 90° East 457 526 39,000  Level Kansas City Center
Thu 09:58:40 PM 38.6156 -95.9078 90° East 456 525 39,000  Level Kansas City Center
Thu 09:59:41 PM 38.6164 -95.7564 90° East 448 516 39,000  Level Kansas City Center
Thu 10:00:43 PM 38.6150 -95.5775 91° East 451 519 39,000  Level Kansas City Center
Thu 10:01:45 PM 38.6153 -95.4239 90° East 453 521 39,000  Level Kansas City Center
Thu 10:02:46 PM 38.6142 -95.2464 90° East 450 518 39,000  Level Kansas City Center
Thu 10:03:47 PM 38.6128 -95.0942 91° East 449 517 39,000  Level Kansas City Center
Thu 10:04:49 PM 38.6114 -94.9153 91° East 452 520 39,000  Level Kansas City Center
Thu 10:05:50 PM 38.6106 -94.7631 90° East 450 518 39,000  Level Kansas City Center
Thu 10:06:52 PM 38.6086 -94.5833 91° East 455 524 39,000  Level Kansas City Center
Thu 10:07:53 PM 38.6064 -94.4294 91° East 455 524 39,000  Level Kansas City Center
Thu 10:08:54 PM 38.6044 -94.2731 91° East 458 527 39,000  Level Kansas City Center
Thu 10:09:56 PM 38.6014 -94.0900 91° East 462 532 39,000  Level Kansas City Center
Thu 10:10:57 PM 38.5981 -93.9339 92° East 462 532 39,000  Level Kansas City Center
Thu 10:11:58 PM 38.5956 -93.7503 91° East 464 534 39,000  Level Kansas City Center
Thu 10:13:00 PM 38.5939 -93.6075 91° East 467 537 39,000  Level Kansas City Center
Thu 10:14:01 PM 38.5894 -93.4083 92° East 466 536 39,000  Level Kansas City Center
Thu 10:15:02 PM 38.5856 -93.2414 92° East 468 539 39,000  Level Kansas City Center
Thu 10:16:04 PM 38.5814 -93.0747 92° East 468 539 39,000  Level Kansas City Center
Thu 10:17:05 PM 38.5772 -92.9092 92° East 465 535 39,000  Level Kansas City Center
Thu 10:18:06 PM 38.5731 -92.7422 92° East 465 535 39,000  Level Kansas City Center
Thu 10:19:08 PM 38.5681 -92.5758 92° East 467 537 39,000  Level Kansas City Center
Thu 10:20:09 PM 38.5642 -92.4058 92° East 470 541 39,000  Level Kansas City Center
Thu 10:21:10 PM 38.5581 -92.2350 93° East 474 545 39,000  Level Kansas City Center
Thu 10:22:12 PM 38.5519 -92.0664 93° East 474 545 39,000  Level Kansas City Center
Thu 10:23:13 PM 38.5458 -91.8972 93° East 473 544 39,000  Level Kansas City Center
Thu 10:24:14 PM 38.5406 -91.7269 92° East 475 547 39,000  Level Kansas City Center
Thu 10:25:16 PM 38.5339 -91.5569 93° East 476 548 39,000  Level Kansas City Center
Thu 10:26:17 PM 38.5258 -91.3858 93° East 478 550 39,000  Level Kansas City Center
Thu 10:27:18 PM 38.5192 -91.1911 92° East 476 548 39,000  Level Kansas City Center
Thu 10:28:20 PM 38.5122 -91.0253 93° East 472 543 39,000  Level Kansas City Center
Thu 10:29:21 PM 38.5050 -90.8606 93° East 469 540 39,000  Level Kansas City Center
Thu 10:30:22 PM 38.4961 -90.6839 94° East 469 540 39,000  Level Kansas City Center
Thu 10:31:23 PM 38.4869 -90.5172 94° East 469 540 39,000  Level Kansas City Center
Thu 10:32:25 PM 38.4789 -90.3508 93° East 470 541 39,000  Level Kansas City Center
Thu 10:33:26 PM 38.4739 -90.2047 92° East 463 533 39,000  Level Kansas City Center
Thu 10:34:27 PM 38.4656 -90.0081 93° East 469 540 39,000  Level Kansas City Center
Thu 10:35:29 PM 38.4558 -89.8475 94° East 458 527 39,000  Level Kansas City Center
Thu 10:36:30 PM 38.4481 -89.6722 93° East 468 539 39,000  Level Kansas City Center
Thu 10:37:31 PM 38.4394 -89.5064 94° East 471 542 39,000  Level Kansas City Center
Thu 10:38:32 PM 38.4292 -89.3267 94° East 473 544 39,000  Level Kansas City Center
Thu 10:39:34 PM 38.4194 -89.1586 94° East 478 550 39,000  Level Kansas City Center
Thu 10:40:35 PM 38.4114 -88.9900 93° East 477 549 39,000  Level Kansas City Center
Thu 10:41:36 PM 38.4053 -88.8092 92° East 476 548 39,000 -829 Level Kansas City Center
Thu 10:42:38 PM 38.3981 -88.6656 94° East 472 543 37,300 -2,293 Descending Kansas City Center
Thu 10:43:39 PM 38.3892 -88.4972 94° East 474 545 34,300 -3,148 Descending Kansas City Center
Thu 10:44:40 PM 38.3811 -88.3261 93° East 481 554 30,900 -2,607 Descending Kansas City Center
Thu 10:45:41 PM 38.3717 -88.1267 93° East 470 541 29,000 -1,200 Descending Kansas City Center
Thu 10:46:15 PM 38.3700 -88.0661 92° East 456 525 29,000  Level Indianapolis Center
Thu 10:47:17 PM 38.3625 -87.9108 93° East 442 509 29,000  Level Indianapolis Center
Thu 10:48:18 PM 38.3533 -87.7528 94° East 446 513 29,000 -295 Level Indianapolis Center
Thu 10:49:19 PM 38.3433 -87.5636 94° East 447 514 28,400 -1,426 Descending Indianapolis Center
Thu 10:50:20 PM 38.3350 -87.4094 94° East 438 504 26,100 -2,341 Descending Indianapolis Center
Thu 10:51:22 PM 38.3258 -87.2617 94° East 422 486 23,600 -2,244 Descending Indianapolis Center
Thu 10:52:23 PM 38.3089 -87.1283 99° East 416 479 21,500 -2,164 Descending Indianapolis Center
Thu 10:53:24 PM 38.2911 -86.9886 99° East 410 472 19,200 -2,213 Descending Indianapolis Center
Thu 10:54:25 PM 38.2742 -86.8553 99° East 393 452 17,000 -2,390 Descending Indianapolis Center
Thu 10:55:27 PM 38.2542 -86.7000 99° East 372 428 14,300 -2,439 Descending Indianapolis Center
Thu 10:56:28 PM 38.2378 -86.5736 99° East 362 417 12,000 -2,066 Descending Indianapolis Center
Thu 10:57:29 PM 38.2219 -86.4525 99° East 351 404 10,100 -1,268 Descending Indianapolis Center
Thu 10:58:31 PM 38.2083 -86.3475 99° East 304 350 9,400 -1,171 Descending Indianapolis Center
Thu 10:59:32 PM 38.1947 -86.2467 100° East 288 331 7,700 -1,475 Descending Indianapolis Center
Thu 11:00:33 PM 38.1819 -86.1461 99° East 289 333 6,400 -829 Descending Indianapolis Center
Thu 11:01:35 PM 38.1706 -86.0522 99° East 275 316 6,000 -195 Descending Indianapolis Center
Thu 11:02:36 PM 38.1622 -85.9594 96° East 265 305 6,000  Level Indianapolis Center
Thu 11:03:37 PM 38.1561 -85.8656 95° East 266 306 6,000 -98 Level Indianapolis Center
Thu 11:04:39 PM 38.1025 -85.8197 146° Southeast 239 275 5,800 -585 Descending Indianapolis Center
Thu 11:05:40 PM 38.0408 -85.7981 165° South 231 266 4,800 -878 Descending Indianapolis Center
Thu 11:06:42 PM 37.9792 -85.7783 166° South 229 264 4,000 -390 Descending Indianapolis Center
Thu 11:07:43 PM 37.9772 -85.7036 92° East 210 242 4,000 -246 Level Indianapolis Center
Thu 11:08:44 PM 38.0308 -85.6947 North 207 238 3,500 -878 Descending Indianapolis Center
Thu 11:09:46 PM 38.0792 -85.7133 343° North 196 226 2,200 -780 Descending Indianapolis Center
Thu 11:10:47 PM 38.1267 -85.7289 346° North 193 222 1,900 -295 Descending Indianapolis Center

Login

Don't have an account? Register now (free) for customized features, flight alerts, and more!